Time;durP1;ratioP1;P1;durP2;ratioP2;P2;SDS_P1;SDS_P2;PMS_P1;PMS_P2;Temp;Humidity;BMP_temperature;BMP_pressure;BME280_temperature;BME280_humidity;BME280_pressure;Samples;Min_cycle;Max_cycle;Signal;HPM_P1;HPM_P2
2024/03/25 00:05:29;;;;;;;16.90;6.70;;;;;;;3.49;73.54;97138.34;435281;1250;114376;-40
2024/03/25 00:15:37;;;;;;;16.30;8.10;;;;;;;3.54;73.88;97135.71;435149;1253;107603;-40
2024/03/25 00:25:44;;;;;;;15.20;8.00;;;;;;;3.51;74.16;97143.92;435285;1252;100451;-40
2024/03/25 00:35:51;;;;;;;19.30;9.60;;;;;;;3.53;74.43;97138.08;435293;1256;108546;-40
2024/03/25 00:45:57;;;;;;;10.50;6.90;;;;;;;3.55;74.36;97124.23;435337;1250;100600;-39
2024/03/25 00:56:04;;;;;;;9.50;5.90;;;;;;;3.54;74.51;97120.08;435407;1250;113177;-40
2024/03/25 01:16:16;;;;;;;12.80;7.50;;;;;;;3.25;74.81;97107.38;435234;1256;100664;-40
2024/03/25 01:26:22;;;;;;;19.40;11.00;;;;;;;2.96;75.14;97108.05;435309;1254;107923;-40
2024/03/25 01:36:29;;;;;;;19.60;9.70;;;;;;;2.75;75.43;97109.20;435213;1253;99328;-40
2024/03/25 01:46:36;;;;;;;22.60;7.30;;;;;;;2.60;75.54;97101.45;435123;1256;112477;-39
2024/03/25 01:56:44;;;;;;;11.60;6.50;;;;;;;2.66;75.82;97101.98;435244;1256;107755;-40
2024/03/25 02:06:51;;;;;;;10.90;7.30;;;;;;;2.79;76.21;97101.92;435333;1254;99950;-41
2024/03/25 02:16:57;;;;;;;14.50;8.60;;;;;;;2.86;76.47;97096.28;435418;1250;107417;-40
2024/03/25 02:27:03;;;;;;;13.10;7.30;;;;;;;2.89;76.97;97094.43;435333;1256;99251;-40
2024/03/25 02:37:10;;;;;;;8.40;5.70;;;;;;;2.94;77.14;97101.20;435290;1256;111513;-39
2024/03/25 02:47:17;;;;;;;8.90;5.00;;;;;;;3.02;77.24;97100.48;436108;1253;105495;-40
2024/03/25 02:57:24;;;;;;;10.00;3.60;;;;;;;3.16;77.45;97097.61;435319;1264;100563;-40
2024/03/25 03:07:30;;;;;;;6.90;4.70;;;;;;;3.28;77.55;97095.91;435243;1256;106594;-41
2024/03/25 03:17:37;;;;;;;6.80;5.30;;;;;;;3.31;77.79;97094.97;435247;1257;100739;-41
2024/03/25 03:27:43;;;;;;;10.20;4.90;;;;;;;3.33;77.89;97092.51;435201;1254;112162;-39
2024/03/25 03:37:49;;;;;;;7.30;4.70;;;;;;;3.26;77.89;97092.25;435234;1256;107230;-40
2024/03/25 03:47:56;;;;;;;5.00;4.30;;;;;;;3.17;77.81;97092.94;435210;1251;99266;-40
2024/03/25 03:58:02;;;;;;;7.70;4.90;;;;;;;3.10;77.76;97089.41;435287;1256;109004;-40
2024/03/25 04:08:09;;;;;;;8.50;5.00;;;;;;;3.00;77.94;97096.02;435203;1257;100680;-39
2024/03/25 04:18:16;;;;;;;10.90;5.70;;;;;;;2.87;78.36;97098.15;435331;1256;111927;-39
2024/03/25 04:38:28;;;;;;;7.10;4.80;;;;;;;2.96;78.67;97112.98;435243;1256;100630;-40
2024/03/25 04:48:34;;;;;;;4.50;3.50;;;;;;;3.20;78.86;97116.21;435205;1255;107154;-39
2024/03/25 04:58:41;;;;;;;11.70;7.00;;;;;;;3.43;79.17;97119.13;435366;1250;100629;-41
2024/03/25 05:08:47;;;;;;;9.50;7.20;;;;;;;3.49;79.36;97124.32;435483;1263;112613;-39
2024/03/25 05:18:54;;;;;;;7.90;5.90;;;;;;;3.39;79.55;97128.55;435202;1256;107904;-40
2024/03/25 05:29:00;;;;;;;6.20;3.70;;;;;;;3.32;79.71;97142.42;435050;1257;99903;-41
2024/03/25 05:39:07;;;;;;;5.50;4.10;;;;;;;3.25;80.07;97153.09;435047;1254;400667;-40
2024/03/25 05:49:14;;;;;;;4.90;4.40;;;;;;;3.18;80.29;97155.73;435227;1256;100586;-40
2024/03/25 05:59:21;;;;;;;7.30;6.00;;;;;;;3.16;80.49;97155.92;435234;1257;114088;-40
2024/03/25 06:09:28;;;;;;;18.20;8.80;;;;;;;3.09;80.78;97161.54;435227;1256;108560;-40
2024/03/25 06:19:35;;;;;;;8.90;6.60;;;;;;;3.12;80.95;97171.02;435249;1263;100584;-39
2024/03/25 06:29:42;;;;;;;10.30;5.90;;;;;;;3.00;80.79;97171.55;435164;1256;108514;-39
2024/03/25 06:39:49;;;;;;;10.60;8.10;;;;;;;3.03;81.31;97172.88;435217;1251;99641;-40
2024/03/25 06:49:55;;;;;;;12.70;9.00;;;;;;;3.26;82.01;97175.08;435243;1255;113477;-40
2024/03/25 07:00:06;;;;;;;19.50;13.00;;;;;;;3.60;82.38;97182.48;435293;1256;107851;-39
2024/03/25 07:10:12;;;;;;;18.20;13.90;;;;;;;3.79;82.80;97187.95;435357;1256;99350;-40
2024/03/25 07:20:22;;;;;;;9.20;8.20;;;;;;;4.23;83.06;97189.73;435369;1251;107300;-40
2024/03/25 07:30:28;;;;;;;9.00;7.20;;;;;;;4.81;83.14;97197.73;435187;1257;99917;-40
2024/03/25 07:50:41;;;;;;;7.30;6.50;;;;;;;5.45;83.38;97208.33;435595;1251;107295;-39
2024/03/25 08:00:47;;;;;;;19.20;11.30;;;;;;;5.43;83.26;97216.30;435269;1255;100551;-39
2024/03/25 08:10:55;;;;;;;9.70;5.80;;;;;;;5.58;83.51;97223.44;435177;1254;107672;-41
2024/03/25 08:21:03;;;;;;;7.00;6.20;;;;;;;6.10;83.66;97222.23;435370;1251;100583;-40
2024/03/25 08:31:09;;;;;;;10.70;6.90;;;;;;;6.54;83.82;97223.48;435364;1254;112056;-38
2024/03/25 08:51:21;;;;;;;10.90;7.90;;;;;;;7.43;83.48;97230.98;435228;1251;99285;-40
2024/03/25 09:01:28;;;;;;;7.90;5.00;;;;;;;7.37;82.84;97232.02;435296;1251;107705;-40
2024/03/25 09:11:35;;;;;;;4.70;3.70;;;;;;;7.38;82.80;97231.02;435320;1251;99384;-39
2024/03/25 09:21:42;;;;;;;9.20;6.60;;;;;;;7.26;82.12;97233.70;435367;1257;114299;-40
2024/03/25 09:31:48;;;;;;;6.70;4.30;;;;;;;6.63;81.69;97277.98;435602;1251;108507;-40
2024/03/25 09:41:56;;;;;;;7.80;4.80;;;;;;;5.04;80.67;97293.11;435244;1251;100600;-40
2024/03/25 10:02:13;;;;;;;11.10;9.00;;;;;;;5.21;83.50;97303.70;435284;1263;100725;-40
2024/03/25 10:22:26;;;;;;;7.10;4.20;;;;;;;6.49;83.09;97298.44;435182;1256;109460;-40
2024/03/25 10:32:33;;;;;;;12.80;7.90;;;;;;;6.64;83.46;97306.95;435169;1254;100706;-39
2024/03/25 10:42:43;;;;;;;6.10;4.50;;;;;;;6.53;83.40;97311.39;435328;1254;108585;-38
2024/03/25 10:52:50;;;;;;;4.60;3.70;;;;;;;6.74;84.08;97311.27;435312;1256;99309;-38
2024/03/25 11:02:58;;;;;;;3.10;2.20;;;;;;;6.62;83.87;97321.95;435210;1256;112754;-38
2024/03/25 11:13:03;;;;;;;30.00;10.30;;;;;;;6.44;84.10;97330.50;435282;1258;107458;-40
2024/03/25 11:23:14;;;;;;;6.40;4.10;;;;;;;6.10;84.38;97332.25;435285;1256;99302;-40
2024/03/25 11:43:29;;;;;;;4.80;3.30;;;;;;;7.36;84.40;97327.39;435355;1251;100584;-40
2024/03/25 11:53:35;;;;;;;4.90;4.10;;;;;;;7.46;83.14;97328.98;435200;1256;112243;-40
2024/03/25 12:13:48;;;;;;;3.90;3.30;;;;;;;7.82;82.63;97331.11;435131;1251;100623;-40
2024/03/25 12:23:58;;;;;;;3.50;3.10;;;;;;;7.98;82.30;97320.77;435169;1254;107399;-39
2024/03/25 12:34:13;;;;;;;4.00;3.40;;;;;;;8.06;81.91;97315.92;435293;1255;99373;-39
2024/03/25 12:44:20;;;;;;;4.60;3.50;;;;;;;7.95;81.21;97319.21;435392;1254;113198;-39
2024/03/25 12:54:27;;;;;;;5.90;4.10;;;;;;;7.63;80.05;97334.41;435089;1256;107115;-39
2024/03/25 13:04:34;;;;;;;3.80;2.50;;;;;;;7.27;80.50;97344.45;435233;1254;100569;-41
2024/03/25 13:14:40;;;;;;;4.00;2.80;;;;;;;6.73;80.83;97366.01;435364;1255;107331;-40
2024/03/25 13:24:47;;;;;;;1.70;1.10;;;;;;;7.03;81.24;97363.67;435268;1256;99404;-40
2024/03/25 13:34:54;;;;;;;5.80;3.80;;;;;;;7.10;80.96;97368.07;435357;1254;112042;-40
2024/03/25 13:45:00;;;;;;;6.30;3.50;;;;;;;7.17;80.75;97375.69;435200;1251;107901;-40
2024/03/25 13:55:06;;;;;;;8.40;4.70;;;;;;;7.27;80.78;97376.85;435319;1253;100578;-40
2024/03/25 14:05:13;;;;;;;7.10;4.40;;;;;;;7.68;80.78;97379.17;435268;1255;108034;-40
2024/03/25 14:15:18;;;;;;;5.00;3.80;;;;;;;7.45;80.41;97397.70;435192;1251;100584;-40
2024/03/25 14:25:25;;;;;;;8.20;6.60;;;;;;;6.95;80.16;97410.11;435232;1254;114375;-38
2024/03/25 14:35:32;;;;;;;7.60;3.70;;;;;;;7.46;80.67;97402.98;435155;1250;108420;-40
2024/03/25 14:45:39;;;;;;;7.40;4.90;;;;;;;7.71;80.52;97405.26;435268;1254;100597;-40
2024/03/25 14:55:46;;;;;;;5.30;3.80;;;;;;;7.89;80.49;97400.98;435241;1254;108144;-40
2024/03/25 15:05:53;;;;;;;6.60;3.90;;;;;;;7.77;79.93;97415.77;435390;1256;100606;-40
2024/03/25 15:15:59;;;;;;;5.70;4.50;;;;;;;7.24;79.29;97443.73;435207;1256;113357;-39
2024/03/25 15:36:12;;;;;;;7.60;4.30;;;;;;;6.32;80.03;97458.58;435376;1255;100565;-41
2024/03/25 15:46:19;;;;;;;13.00;5.90;;;;;;;6.34;80.30;97460.31;435261;1256;109724;-39
2024/03/25 15:56:23;;;;;;;81.60;32.20;;;;;;;6.18;80.31;97468.47;435239;1254;100581;-41
2024/03/25 16:06:30;;;;;;;19.80;10.40;;;;;;;6.12;80.60;97471.59;435331;1254;113058;-40
2024/03/25 16:16:41;;;;;;;25.60;11.10;;;;;;;6.17;80.77;97479.91;435179;1250;107703;-40
2024/03/25 16:26:48;;;;;;;25.10;13.50;;;;;;;6.25;81.14;97491.52;435292;1254;99344;-40
2024/03/25 16:36:53;;;;;;;23.20;12.70;;;;;;;6.18;81.51;97500.77;435433;1254;107948;-40
2024/03/25 16:46:59;;;;;;;12.80;7.20;;;;;;;6.11;81.54;97514.92;435223;1254;100551;-40
2024/03/25 16:57:05;;;;;;;12.20;7.50;;;;;;;6.00;81.46;97526.74;435169;1254;112460;-40
2024/03/25 17:07:11;;;;;;;31.50;20.10;;;;;;;5.74;81.50;97541.33;435315;1251;107375;-40
2024/03/25 17:27:24;;;;;;;20.30;14.00;;;;;;;5.04;81.79;97566.55;435233;1254;107507;-39
2024/03/25 17:37:31;;;;;;;32.10;19.90;;;;;;;4.84;81.80;97575.00;434756;1250;513611;-39
2024/03/25 17:47:38;;;;;;;25.90;14.40;;;;;;;4.75;81.97;97583.20;435226;1250;112438;-40
2024/03/25 17:57:45;;;;;;;20.90;12.90;;;;;;;4.64;82.13;97592.21;435207;1256;108649;-39
2024/03/25 18:07:51;;;;;;;16.40;8.90;;;;;;;4.50;82.13;97594.05;435206;1256;100606;-39
2024/03/25 18:28:03;;;;;;;20.30;10.80;;;;;;;4.11;82.47;97617.08;435214;1256;99671;-40
2024/03/25 18:38:10;;;;;;;46.80;20.00;;;;;;;3.86;82.51;97617.54;435316;1255;113775;-39
2024/03/25 18:48:16;;;;;;;33.30;14.60;;;;;;;3.73;82.55;97622.60;435249;1251;108005;-40
2024/03/25 18:58:23;;;;;;;29.80;14.80;;;;;;;3.67;82.63;97633.98;435177;1256;100564;-39
2024/03/25 19:08:30;;;;;;;20.80;10.50;;;;;;;3.67;82.94;97640.78;435310;1254;107526;-39
2024/03/25 19:18:37;;;;;;;30.90;15.00;;;;;;;3.67;82.98;97643.00;435283;1256;99413;-41
2024/03/25 19:28:43;;;;;;;28.90;16.00;;;;;;;3.54;83.10;97648.73;435277;1256;112153;-39
2024/03/25 19:38:50;;;;;;;31.40;18.00;;;;;;;3.32;82.93;97652.72;435293;1256;107503;-40
2024/03/25 19:48:57;;;;;;;26.00;15.10;;;;;;;3.12;82.99;97656.23;435201;1256;100678;-40
2024/03/25 19:59:03;;;;;;;60.70;29.90;;;;;;;3.10;83.25;97661.05;435334;1256;108202;-41
2024/03/25 20:09:09;;;;;;;52.20;27.80;;;;;;;3.14;83.47;97663.29;435267;1256;99367;-40
2024/03/25 20:19:16;;;;;;;57.90;27.50;;;;;;;3.08;83.64;97670.26;435392;1250;112582;-40
2024/03/25 20:29:23;;;;;;;30.90;17.60;;;;;;;3.03;83.94;97679.29;435270;1256;108480;-40
2024/03/25 20:39:30;;;;;;;128.20;52.20;;;;;;;2.92;83.99;97685.15;435262;1251;100417;-40
2024/03/25 20:49:36;;;;;;;14.30;10.00;;;;;;;2.84;83.95;97686.40;435395;1256;110486;-41
2024/03/25 20:59:43;;;;;;;20.90;13.40;;;;;;;2.72;83.83;97689.91;435182;1250;99279;-40
2024/03/25 21:09:50;;;;;;;13.90;9.10;;;;;;;2.68;84.19;97691.01;435221;1250;113164;-40
2024/03/25 21:19:56;;;;;;;18.60;11.10;;;;;;;2.67;84.35;97689.48;435142;1255;108839;-40
2024/03/25 21:30:03;;;;;;;22.20;11.50;;;;;;;2.57;84.39;97690.89;435377;1256;100584;-40
2024/03/25 21:40:12;;;;;;;21.00;11.40;;;;;;;2.39;84.51;97688.37;435295;1256;108612;-40
2024/03/25 21:50:18;;;;;;;114.50;43.20;;;;;;;2.27;84.41;97691.23;435173;1255;100623;-40
2024/03/25 22:00:25;;;;;;;15.90;10.10;;;;;;;2.29;84.73;97695.94;435314;1254;113586;-39
2024/03/25 22:10:32;;;;;;;12.50;9.50;;;;;;;2.30;84.76;97701.80;435229;1253;107375;-39
2024/03/25 22:20:38;;;;;;;22.40;12.70;;;;;;;2.22;84.84;97708.05;435159;1255;99366;-40
2024/03/25 22:30:44;;;;;;;29.40;15.50;;;;;;;2.09;85.19;97721.66;435277;1255;108145;-40
2024/03/25 22:40:50;;;;;;;36.80;23.40;;;;;;;1.92;85.09;97728.41;435406;1250;99372;-38
2024/03/25 22:50:59;;;;;;;40.90;24.80;;;;;;;1.77;84.98;97721.75;435344;1254;113162;-39
2024/03/25 23:01:04;;;;;;;;;;;;;;;1.71;85.02;97727.17;435285;1256;107937;-40
2024/03/25 23:11:10;;;;;;;58.50;34.40;;;;;;;1.58;85.22;97730.93;435250;1251;99427;-39
2024/03/25 23:21:17;;;;;;;58.80;34.80;;;;;;;1.46;85.22;97739.27;435259;1255;108278;-39
2024/03/25 23:31:24;;;;;;;91.30;47.10;;;;;;;1.37;85.72;97739.81;435345;1253;100600;-39
2024/03/25 23:41:31;;;;;;;84.40;42.00;;;;;;;1.23;85.72;97736.30;435213;1256;113605;-39
2024/03/25 23:51:36;;;;;;;81.10;44.10;;;;;;;1.06;85.78;97744.32;435322;1252;107678;-39
